Time;durP1;ratioP1;P1;durP2;ratioP2;P2;SDS_P1;SDS_P2;PMS_P1;PMS_P2;Temp;Humidity;BMP_temperature;BMP_pressure;BME280_temperature;BME280_humidity;BME280_pressure;Samples;Min_cycle;Max_cycle;Signal;HPM_P1;HPM_P2
2022/07/03 00:01:09;;;;;;;7.03;3.20;;;18.60;99.90;;;;;;5036753;28;20118;-60
2022/07/03 00:03:34;;;;;;;6.63;3.35;;;18.50;99.90;;;;;;5038173;28;20049;-60
2022/07/03 00:06:00;;;;;;;5.93;3.20;;;18.50;99.90;;;;;;5036286;28;20600;-60
2022/07/03 00:08:25;;;;;;;9.55;3.60;;;18.50;99.90;;;;;;5038367;28;20042;-61
2022/07/03 00:10:51;;;;;;;7.97;3.20;;;18.40;99.90;;;;;;5036133;28;20533;-60
2022/07/03 00:13:17;;;;;;;7.10;2.65;;;18.40;99.90;;;;;;5037894;28;20069;-60
2022/07/03 00:15:43;;;;;;;7.45;3.60;;;18.30;99.90;;;;;;5036478;28;20150;-60
2022/07/03 00:18:10;;;;;;;6.47;3.15;;;18.30;99.90;;;;;;5037125;28;20068;-60
2022/07/03 00:20:42;;;;;;;8.30;3.50;;;18.20;99.90;;;;;;5035276;28;20075;-60
2022/07/03 00:23:11;;;;;;;7.25;3.42;;;18.10;99.90;;;;;;5016341;28;20073;-60
2022/07/03 00:25:39;;;;;;;8.27;3.67;;;18.10;99.90;;;;;;5018235;28;20049;-59
2022/07/03 00:28:06;;;;;;;6.80;3.55;;;18.00;99.90;;;;;;5016666;28;20046;-60
2022/07/03 00:30:32;;;;;;;6.63;3.40;;;18.00;99.90;;;;;;5021514;28;20072;-60
2022/07/03 00:33:01;;;;;;;9.52;3.55;;;17.90;99.90;;;;;;5020737;28;20061;-58
2022/07/03 00:35:27;;;;;;;7.53;3.75;;;17.90;99.90;;;;;;5020518;28;20042;-60
2022/07/03 00:37:53;;;;;;;7.60;3.60;;;17.90;99.90;;;;;;5021215;28;20042;-60
2022/07/03 00:40:19;;;;;;;9.05;4.28;;;17.80;99.90;;;;;;5019826;28;20289;-60
2022/07/03 00:42:49;;;;;;;7.63;3.65;;;17.80;99.90;;;;;;5021912;28;20648;-60
2022/07/03 00:45:18;;;;;;;6.90;3.28;;;17.80;99.90;;;;;;5019497;28;20062;-60
2022/07/03 00:47:44;;;;;;;7.82;3.83;;;17.80;99.90;;;;;;5021483;28;20053;-59
2022/07/03 00:50:10;;;;;;;7.22;3.90;;;17.80;99.90;;;;;;5020345;28;20046;-60
2022/07/03 00:52:38;;;;;;;7.43;3.72;;;17.70;99.90;;;;;;5035735;28;20041;-59
2022/07/03 00:55:08;;;;;;;7.80;3.83;;;17.70;99.90;;;;;;5040701;28;20501;-60
2022/07/03 00:57:39;;;;;;;6.45;3.83;;;17.70;99.90;;;;;;5039276;28;20049;-60
2022/07/03 01:00:06;;;;;;;6.85;3.90;;;17.60;99.90;;;;;;5041218;28;20041;-60
2022/07/03 01:02:43;;;;;;;7.60;3.65;;;17.60;99.90;;;;;;5039130;28;20108;-60
2022/07/03 01:05:33;;;;;;;7.72;3.70;;;17.70;99.90;;;;;;5040209;28;20088;-60
2022/07/03 01:08:26;;;;;;;7.75;4.22;;;17.60;99.90;;;;;;5041011;28;20034;-60
2022/07/03 01:10:52;;;;;;;8.55;3.80;;;17.60;99.90;;;;;;5038730;28;20417;-60
2022/07/03 01:13:48;;;;;;;7.88;4.35;;;17.50;99.90;;;;;;5040383;28;20045;-60
2022/07/03 01:16:42;;;;;;;8.07;4.32;;;17.40;99.90;;;;;;5013723;28;20054;-59
2022/07/03 01:19:43;;;;;;;7.05;4.13;;;17.40;99.90;;;;;;5038850;28;20116;-60
2022/07/03 01:22:14;;;;;;;6.88;4.22;;;17.40;99.90;;;;;;5024770;28;20052;-60
2022/07/03 01:24:56;;;;;;;7.43;4.55;;;17.40;99.90;;;;;;5020385;28;20053;-60
2022/07/03 01:27:32;;;;;;;8.60;4.10;;;17.40;99.90;;;;;;5018932;28;20056;-60
2022/07/03 01:30:07;;;;;;;7.35;4.18;;;17.40;99.90;;;;;;5020524;28;20917;-61
2022/07/03 01:32:58;;;;;;;6.30;3.97;;;17.30;99.90;;;;;;5019056;28;20049;-60
2022/07/03 01:35:38;;;;;;;9.88;4.47;;;17.30;99.90;;;;;;5013080;28;20058;-61
2022/07/03 01:38:10;;;;;;;7.78;4.53;;;17.20;99.90;;;;;;5020860;28;20050;-60
2022/07/03 01:40:37;;;;;;;6.80;4.20;;;17.20;99.90;;;;;;5017418;28;20056;-59
2022/07/03 01:43:06;;;;;;;7.85;4.57;;;17.20;99.90;;;;;;5020596;28;20050;-60
2022/07/03 01:45:38;;;;;;;8.38;5.03;;;17.20;99.90;;;;;;5018889;28;20077;-60
2022/07/03 01:48:05;;;;;;;9.15;5.53;;;16.60;99.90;;;;;;5019467;28;20054;-60
2022/07/03 01:50:32;;;;;;;9.25;5.38;;;16.40;99.90;;;;;;5019959;28;20046;-59
2022/07/03 01:53:01;;;;;;;8.45;4.60;;;16.40;99.90;;;;;;5037420;28;20469;-60
2022/07/03 01:55:31;;;;;;;7.80;4.97;;;16.20;99.90;;;;;;5040168;28;20045;-60
2022/07/03 01:57:57;;;;;;;9.80;5.50;;;16.00;99.90;;;;;;5037903;28;20478;-60
2022/07/03 02:00:22;;;;;;;7.85;4.78;;;16.20;99.90;;;;;;5039954;28;20084;-60
2022/07/03 02:02:57;;;;;;;8.00;4.78;;;16.10;99.90;;;;;;5038584;28;20124;-60
2022/07/03 02:05:41;;;;;;;9.57;5.55;;;16.30;99.90;;;;;;5038757;28;20060;-59
2022/07/03 02:08:35;;;;;;;9.57;5.40;;;16.30;99.90;;;;;;5039863;28;20044;-60
2022/07/03 02:11:19;;;;;;;8.50;5.47;;;16.40;99.90;;;;;;5038096;28;20049;-60
2022/07/03 02:14:06;;;;;;;9.02;5.47;;;16.40;99.90;;;;;;5038514;28;20197;-60
2022/07/03 02:16:43;;;;;;;9.57;5.38;;;16.40;99.90;;;;;;5039487;28;20066;-60
2022/07/03 02:19:12;;;;;;;8.27;5.20;;;16.40;99.90;;;;;;5037762;28;20052;-60
2022/07/03 02:21:43;;;;;;;7.80;5.65;;;16.40;99.90;;;;;;5029609;28;20073;-60
2022/07/03 02:24:25;;;;;;;8.68;5.57;;;16.40;99.90;;;;;;5018209;28;20114;-60
2022/07/03 02:27:12;;;;;;;9.82;5.60;;;16.30;99.90;;;;;;5018533;28;20105;-59
2022/07/03 02:29:53;;;;;;;10.80;6.28;;;16.30;99.90;;;;;;5019909;28;20570;-59
2022/07/03 02:32:25;;;;;;;9.18;6.15;;;16.30;99.90;;;;;;5017696;28;20092;-59
2022/07/03 02:35:01;;;;;;;10.30;5.28;;;16.30;99.90;;;;;;5019262;28;20056;-59
2022/07/03 02:37:31;;;;;;;8.02;5.65;;;16.30;99.90;;;;;;5019010;28;20065;-59
2022/07/03 02:40:26;;;;;;;9.48;5.40;;;16.30;99.90;;;;;;5017833;28;20218;-59
2022/07/03 02:43:10;;;;;;;8.02;4.65;;;16.20;99.90;;;;;;5019397;28;20061;-59
2022/07/03 02:45:50;;;;;;;10.02;5.90;;;16.20;99.90;;;;;;5017963;28;20054;-59
2022/07/03 02:48:33;;;;;;;8.55;5.75;;;16.20;99.90;;;;;;5018406;28;20041;-59
2022/07/03 02:51:10;;;;;;;8.80;5.65;;;16.10;99.90;;;;;;5021648;28;20056;-59
2022/07/03 02:53:44;;;;;;;9.57;6.05;;;16.10;99.90;;;;;;5036851;28;20041;-58
2022/07/03 02:56:53;;;;;;;9.90;5.75;;;16.10;99.90;;;;;;5038713;28;20108;-60
2022/07/03 02:59:49;;;;;;;9.18;6.00;;;16.10;99.90;;;;;;5025542;28;20050;-59
2022/07/03 03:02:42;;;;;;;8.68;6.18;;;16.00;99.90;;;;;;5036836;28;20057;-59
2022/07/03 03:05:23;;;;;;;10.95;6.65;;;15.90;99.90;;;;;;5038339;28;20053;-59
2022/07/03 03:08:01;;;;;;;8.77;5.88;;;15.90;99.90;;;;;;5038809;28;20049;-59
2022/07/03 03:10:27;;;;;;;10.05;5.82;;;15.90;99.90;;;;;;5037102;28;20468;-59
2022/07/03 03:13:09;;;;;;;9.35;6.05;;;15.90;99.90;;;;;;5038881;28;20075;-59
2022/07/03 03:15:36;;;;;;;8.88;6.07;;;16.00;99.90;;;;;;5036820;28;20053;-59
2022/07/03 03:18:05;;;;;;;10.25;6.70;;;16.00;99.90;;;;;;5037856;28;20041;-59
2022/07/03 03:20:32;;;;;;;10.20;6.97;;;16.00;99.90;;;;;;5036171;28;20045;-58
2022/07/03 03:23:23;;;;;;;10.00;7.00;;;15.90;99.90;;;;;;5017114;28;20041;-59
2022/07/03 03:25:51;;;;;;;10.35;7.28;;;16.00;99.90;;;;;;5019125;28;20304;-59
2022/07/03 03:28:17;;;;;;;10.50;6.85;;;16.00;99.90;;;;;;5017024;28;20045;-58
2022/07/03 03:30:42;;;;;;;9.85;6.68;;;16.10;99.90;;;;;;5018393;28;20429;-59
2022/07/03 03:33:10;;;;;;;9.68;6.47;;;16.30;99.90;;;;;;5018209;28;20977;-58
2022/07/03 03:35:37;;;;;;;10.20;6.90;;;16.20;99.90;;;;;;5017325;28;20048;-59
2022/07/03 03:38:03;;;;;;;12.18;7.38;;;16.10;99.90;;;;;;5018772;28;20054;-60
2022/07/03 03:40:30;;;;;;;10.00;6.85;;;16.20;99.90;;;;;;5016789;28;20053;-59
2022/07/03 03:42:56;;;;;;;11.15;7.53;;;16.20;99.90;;;;;;5018759;28;20042;-60
2022/07/03 03:45:22;;;;;;;9.43;6.57;;;16.20;99.90;;;;;;5016549;28;20046;-59
2022/07/03 03:47:47;;;;;;;9.07;6.78;;;16.20;99.90;;;;;;5018179;28;20053;-59
2022/07/03 03:50:13;;;;;;;11.15;6.95;;;16.10;99.90;;;;;;5017789;28;20037;-59
2022/07/03 03:52:39;;;;;;;10.85;6.80;;;16.10;99.90;;;;;;5033229;28;20033;-60
2022/07/03 03:55:05;;;;;;;9.60;6.50;;;16.10;99.90;;;;;;5038243;28;20103;-60
2022/07/03 03:57:31;;;;;;;8.40;6.50;;;16.10;99.90;;;;;;5036533;28;20037;-59
2022/07/03 03:59:58;;;;;;;10.70;6.65;;;16.00;99.90;;;;;;5038435;28;20084;-60
2022/07/03 04:02:23;;;;;;;11.60;7.28;;;16.00;99.90;;;;;;5037199;28;20049;-61
2022/07/03 04:04:49;;;;;;;12.82;7.75;;;16.00;99.90;;;;;;5040354;28;20095;-60
2022/07/03 04:07:15;;;;;;;10.30;6.80;;;16.00;99.90;;;;;;5041288;28;20050;-59
2022/07/03 04:09:40;;;;;;;9.95;6.90;;;15.90;99.90;;;;;;5040931;28;20049;-60
2022/07/03 04:12:07;;;;;;;11.80;6.78;;;16.10;99.90;;;;;;5042107;28;20046;-60
2022/07/03 04:14:32;;;;;;;10.98;7.45;;;16.10;99.90;;;;;;5039617;28;20050;-60
2022/07/03 04:16:58;;;;;;;11.88;6.82;;;16.20;99.90;;;;;;5041961;28;20145;-60
2022/07/03 04:19:25;;;;;;;10.82;7.20;;;16.20;99.90;;;;;;5040003;28;20052;-60
2022/07/03 04:21:51;;;;;;;10.30;7.05;;;16.20;99.90;;;;;;5030170;28;20316;-60
2022/07/03 04:24:17;;;;;;;8.82;6.82;;;16.40;99.90;;;;;;5019708;28;20532;-60
2022/07/03 04:26:43;;;;;;;9.20;6.53;;;16.30;99.90;;;;;;5020877;28;20068;-60
2022/07/03 04:29:09;;;;;;;10.27;6.55;;;16.40;99.90;;;;;;5021557;28;20498;-60
2022/07/03 04:31:35;;;;;;;9.70;6.25;;;16.50;99.90;;;;;;5020039;28;20105;-60
2022/07/03 04:34:00;;;;;;;10.82;7.43;;;16.60;99.90;;;;;;5021884;28;20541;-60
2022/07/03 04:36:26;;;;;;;9.50;6.75;;;16.60;99.90;;;;;;5019775;28;20568;-59
2022/07/03 04:38:51;;;;;;;8.77;6.32;;;16.60;99.90;;;;;;5021700;28;20101;-60
2022/07/03 04:41:17;;;;;;;10.15;7.18;;;16.70;99.90;;;;;;5020504;28;20069;-59
2022/07/03 04:43:43;;;;;;;11.63;7.30;;;16.80;99.90;;;;;;5020431;28;20046;-59
2022/07/03 04:46:09;;;;;;;8.35;6.97;;;16.90;99.90;;;;;;5021191;28;20049;-59
2022/07/03 04:48:34;;;;;;;9.70;6.30;;;17.00;99.90;;;;;;5019626;28;20045;-58
2022/07/03 04:51:00;;;;;;;8.38;6.05;;;17.10;99.90;;;;;;5024288;28;20073;-59
2022/07/03 04:53:26;;;;;;;11.50;7.20;;;17.30;99.90;;;;;;5039351;28;20063;-59
2022/07/03 04:55:52;;;;;;;9.63;7.40;;;17.40;99.90;;;;;;5041109;28;20049;-59
2022/07/03 04:58:18;;;;;;;9.07;6.00;;;17.60;99.90;;;;;;5039689;28;20041;-59
2022/07/03 05:00:44;;;;;;;9.02;5.95;;;17.50;99.90;;;;;;5040664;28;20048;-61
2022/07/03 05:03:11;;;;;;;10.52;6.00;;;17.50;99.90;;;;;;5040617;28;20087;-59
2022/07/03 05:05:37;;;;;;;8.50;5.30;;;17.60;99.90;;;;;;5039260;28;20041;-60
2022/07/03 05:08:03;;;;;;;11.68;5.50;;;17.70;99.90;;;;;;5040326;28;20045;-60
2022/07/03 05:10:28;;;;;;;10.27;4.70;;;17.90;99.90;;;;;;5038947;28;20037;-59
2022/07/03 05:12:54;;;;;;;8.52;4.47;;;18.00;99.90;;;;;;5040800;28;20128;-59
2022/07/03 05:15:20;;;;;;;8.40;5.20;;;18.00;99.90;;;;;;5038216;28;20057;-59
2022/07/03 05:17:46;;;;;;;7.95;5.28;;;18.10;99.90;;;;;;5040105;28;20046;-59
2022/07/03 05:20:24;;;;;;;9.75;4.97;;;18.10;99.90;;;;;;5038748;28;20049;-59
2022/07/03 05:22:50;;;;;;;8.35;4.20;;;18.20;99.90;;;;;;5019189;28;20061;-58
2022/07/03 05:25:16;;;;;;;8.38;4.22;;;18.20;99.90;;;;;;5020725;28;20050;-58
2022/07/03 05:27:42;;;;;;;6.93;4.10;;;18.20;99.90;;;;;;5017225;28;20038;-58
2022/07/03 05:30:08;;;;;;;8.23;4.70;;;18.10;99.90;;;;;;5018307;28;20333;-59
2022/07/03 05:32:34;;;;;;;6.47;4.25;;;18.20;99.90;;;;;;5015079;28;20045;-58
2022/07/03 05:34:59;;;;;;;9.50;4.97;;;18.20;99.90;;;;;;5016393;28;20054;-58
2022/07/03 05:37:25;;;;;;;8.35;4.30;;;18.20;99.90;;;;;;5016235;28;20084;-58
2022/07/03 05:39:51;;;;;;;7.15;4.50;;;18.10;99.90;;;;;;5015323;28;20100;-58
2022/07/03 05:42:16;;;;;;;7.88;5.05;;;18.10;99.90;;;;;;5016432;28;20042;-58
2022/07/03 05:44:42;;;;;;;8.90;4.85;;;18.10;99.90;;;;;;5014362;28;20038;-58
2022/07/03 05:47:07;;;;;;;8.02;4.70;;;18.10;99.90;;;;;;5016689;28;20061;-59
2022/07/03 05:49:33;;;;;;;7.95;4.45;;;18.00;99.90;;;;;;5014712;28;20042;-58
2022/07/03 05:51:59;;;;;;;8.52;4.05;;;18.10;99.90;;;;;;5027336;28;20109;-61
2022/07/03 05:54:24;;;;;;;8.57;4.63;;;18.10;99.90;;;;;;5034558;28;20052;-59
2022/07/03 05:56:50;;;;;;;8.05;4.60;;;18.10;99.90;;;;;;5018512;28;20877;-59
2022/07/03 05:59:15;;;;;;;7.72;4.90;;;18.20;99.90;;;;;;5016427;28;20533;-59
2022/07/03 06:01:41;;;;;;;7.40;4.75;;;18.00;99.90;;;;;;5014619;28;20589;-59
2022/07/03 06:04:07;;;;;;;7.57;4.13;;;18.10;99.90;;;;;;5016495;28;20046;-59
2022/07/03 06:06:32;;;;;;;7.53;3.65;;;18.20;99.90;;;;;;5014050;28;20105;-59
2022/07/03 06:08:58;;;;;;;6.35;3.75;;;18.20;99.90;;;;;;5016408;28;20046;-58
2022/07/03 06:11:24;;;;;;;5.90;3.85;;;18.40;99.90;;;;;;5015232;28;20105;-59
2022/07/03 06:13:49;;;;;;;7.30;3.70;;;18.30;99.90;;;;;;5014516;28;20053;-59
2022/07/03 06:16:15;;;;;;;7.72;4.00;;;18.30;99.90;;;;;;5016088;28;20064;-59
2022/07/03 06:18:41;;;;;;;8.13;3.60;;;18.40;99.90;;;;;;5013145;28;20068;-60
2022/07/03 06:21:06;;;;;;;8.57;4.20;;;18.40;99.90;;;;;;5021941;28;20100;-59
2022/07/03 06:23:32;;;;;;;6.38;3.58;;;18.40;99.90;;;;;;5032541;28;20045;-59
2022/07/03 06:25:58;;;;;;;9.98;4.10;;;18.30;99.90;;;;;;5035080;28;20197;-59
2022/07/03 06:28:23;;;;;;;6.53;3.67;;;18.30;99.90;;;;;;5034385;28;20492;-60
2022/07/03 06:30:49;;;;;;;6.38;3.60;;;18.30;99.90;;;;;;5034565;28;20091;-60
2022/07/03 06:33:15;;;;;;;7.93;3.63;;;18.40;99.90;;;;;;5035476;28;20048;-60
2022/07/03 06:35:40;;;;;;;5.85;3.13;;;18.50;99.90;;;;;;5032794;28;20088;-60
2022/07/03 06:38:06;;;;;;;6.90;3.78;;;18.80;99.90;;;;;;5035083;28;20046;-61
2022/07/03 06:40:31;;;;;;;6.63;2.78;;;18.90;99.90;;;;;;5032763;28;20049;-59
2022/07/03 06:42:58;;;;;;;6.97;2.83;;;18.90;99.90;;;;;;5034756;28;20041;-59
2022/07/03 06:45:23;;;;;;;7.93;2.83;;;18.80;99.90;;;;;;5033208;28;20049;-60
2022/07/03 06:47:49;;;;;;;7.25;2.95;;;18.60;99.90;;;;;;5034651;28;20077;-60
2022/07/03 06:50:14;;;;;;;7.13;3.10;;;18.60;99.90;;;;;;5030977;28;20410;-60
2022/07/03 06:52:40;;;;;;;6.07;3.15;;;18.40;99.90;;;;;;5030742;28;20045;-61
2022/07/03 06:55:06;;;;;;;8.55;3.40;;;18.30;99.90;;;;;;5035368;28;20586;-60
2022/07/03 06:57:32;;;;;;;7.30;3.33;;;18.20;99.90;;;;;;5033484;28;20045;-60
2022/07/03 06:59:58;;;;;;;5.55;2.97;;;18.20;99.90;;;;;;5034220;28;20194;-61
2022/07/03 07:02:23;;;;;;;6.80;3.03;;;18.40;99.90;;;;;;5033412;28;20048;-60
2022/07/03 07:04:49;;;;;;;6.18;2.70;;;18.50;99.90;;;;;;5034902;28;20101;-61
2022/07/03 07:07:15;;;;;;;6.97;3.03;;;18.70;99.90;;;;;;5034176;28;20089;-60
2022/07/03 07:09:40;;;;;;;6.15;2.83;;;18.70;99.90;;;;;;5034090;28;20037;-60
2022/07/03 07:12:06;;;;;;;6.30;2.65;;;18.80;99.90;;;;;;5018241;28;20042;-61
2022/07/03 07:14:32;;;;;;;6.45;3.05;;;19.10;99.90;;;;;;5013024;28;20054;-61
2022/07/03 07:16:58;;;;;;;5.85;2.20;;;19.00;99.90;;;;;;5015607;28;20088;-61
2022/07/03 07:19:23;;;;;;;6.13;2.92;;;19.10;99.90;;;;;;5013060;28;20050;-60
2022/07/03 07:21:49;;;;;;;7.55;2.60;;;18.90;99.90;;;;;;5026577;28;20046;-60
2022/07/03 07:24:14;;;;;;;6.93;2.30;;;18.80;99.90;;;;;;5032472;28;20049;-60
2022/07/03 07:26:40;;;;;;;6.72;2.50;;;18.80;99.90;;;;;;5033993;28;20052;-60
2022/07/03 07:29:06;;;;;;;6.55;2.30;;;18.70;99.90;;;;;;5033314;28;20052;-60
2022/07/03 07:31:32;;;;;;;5.85;2.47;;;18.60;99.90;;;;;;5032632;28;20053;-60
2022/07/03 07:33:57;;;;;;;7.53;2.40;;;18.60;99.90;;;;;;5033928;28;20041;-61
2022/07/03 07:36:23;;;;;;;5.32;2.00;;;18.70;99.90;;;;;;5033422;28;20071;-60
2022/07/03 07:38:49;;;;;;;6.68;2.60;;;19.10;99.90;;;;;;5038749;28;20064;-60
2022/07/03 07:41:14;;;;;;;5.13;2.30;;;19.10;99.90;;;;;;5037588;28;20047;-59
2022/07/03 07:43:40;;;;;;;5.18;2.08;;;19.30;99.90;;;;;;5037582;28;20421;-59
2022/07/03 07:46:06;;;;;;;6.47;2.20;;;19.50;99.90;;;;;;5028735;28;20660;-60
2022/07/03 07:48:34;;;;;;;6.00;1.80;;;19.80;99.90;;;;;;5030221;28;20847;-59
2022/07/03 07:51:00;;;;;;;5.85;1.63;;;20.00;99.90;;;;;;5032077;28;20041;-60
2022/07/03 07:53:25;;;;;;;4.35;1.65;;;20.00;99.90;;;;;;5028781;28;20046;-60
2022/07/03 07:55:51;;;;;;;5.88;1.60;;;19.90;99.90;;;;;;5030099;28;20065;-59
2022/07/03 07:58:17;;;;;;;4.70;1.60;;;19.80;99.90;;;;;;5030412;28;20034;-59
2022/07/03 08:05:35;;;;;;;5.32;1.38;;;19.70;99.90;;;;;;5031389;28;20710;-60
2022/07/03 08:06:14;;;;;;;5.47;2.00;;;19.90;99.90;;;;;;5028770;28;20045;-60
2022/07/03 08:08:40;;;;;;;4.88;1.30;;;20.10;99.90;;;;;;5031601;28;20482;-60
2022/07/03 08:11:06;;;;;;;5.68;1.40;;;20.20;99.90;;;;;;5030146;28;20037;-60
2022/07/03 08:13:31;;;;;;;5.32;1.40;;;20.30;99.90;;;;;;5031319;28;20037;-60
2022/07/03 08:15:57;;;;;;;4.15;1.00;;;20.60;99.90;;;;;;5029610;28;20425;-60
2022/07/03 08:18:22;;;;;;;4.72;1.10;;;20.40;99.90;;;;;;5029099;28;20048;-59
2022/07/03 08:20:48;;;;;;;4.00;1.00;;;20.60;99.90;;;;;;5030064;28;20037;-59
2022/07/03 08:23:14;;;;;;;3.65;1.13;;;20.80;99.90;;;;;;5028868;28;20036;-59
2022/07/03 08:25:40;;;;;;;5.90;1.30;;;20.60;99.90;;;;;;5030918;28;20135;-59
2022/07/03 08:28:05;;;;;;;4.65;1.15;;;20.80;99.90;;;;;;5029510;28;20048;-60
2022/07/03 08:30:31;;;;;;;4.35;1.30;;;20.80;99.90;;;;;;5030589;28;20045;-59
2022/07/03 08:32:58;;;;;;;6.10;1.50;;;20.80;99.90;;;;;;5030065;28;20041;-61
2022/07/03 08:35:25;;;;;;;6.05;1.48;;;20.80;99.90;;;;;;5029869;28;20041;-59
2022/07/03 08:37:51;;;;;;;4.07;1.27;;;20.90;99.90;;;;;;5031282;28;20091;-59
2022/07/03 08:40:19;;;;;;;3.22;1.05;;;20.70;99.90;;;;;;5029565;28;20313;-59
2022/07/03 08:42:56;;;;;;;3.33;1.15;;;21.00;99.90;;;;;;5030758;28;20064;-60
2022/07/03 08:45:23;;;;;;;7.88;1.35;;;21.20;99.90;;;;;;5028481;28;20045;-59
2022/07/03 08:47:50;;;;;;;5.15;1.10;;;21.50;99.90;;;;;;5030166;28;20353;-60
2022/07/03 08:50:18;;;;;;;4.38;1.05;;;21.10;99.90;;;;;;5030029;28;20076;-60
2022/07/03 08:52:44;;;;;;;4.22;1.20;;;21.00;99.90;;;;;;5029251;28;20620;-63
2022/07/03 08:55:11;;;;;;;4.65;1.20;;;21.00;99.90;;;;;;5030603;28;20069;-60
2022/07/03 08:57:38;;;;;;;4.88;1.17;;;21.10;99.90;;;;;;5028099;28;20100;-60
2022/07/03 09:00:09;;;;;;;3.60;1.00;;;21.20;99.90;;;;;;5028220;28;20076;-61
2022/07/03 09:02:35;;;;;;;3.00;1.10;;;21.40;99.90;;;;;;5009475;28;20072;-60
2022/07/03 09:05:02;;;;;;;3.33;1.17;;;21.50;99.90;;;;;;5030074;28;20041;-60
2022/07/03 09:07:35;;;;;;;2.92;0.93;;;21.40;99.90;;;;;;5029698;28;20167;-59
2022/07/03 09:10:06;;;;;;;4.35;0.80;;;21.50;99.90;;;;;;5028285;28;20095;-60
2022/07/03 09:12:32;;;;;;;5.25;1.05;;;21.40;99.90;;;;;;5030661;28;20045;-61
2022/07/03 09:15:03;;;;;;;3.28;0.90;;;21.40;99.90;;;;;;5026297;28;20049;-59
2022/07/03 09:17:29;;;;;;;3.28;1.15;;;21.20;99.90;;;;;;5029939;28;20041;-60
2022/07/03 09:19:57;;;;;;;4.90;1.10;;;21.40;99.90;;;;;;5029215;28;20083;-60
2022/07/03 09:22:28;;;;;;;4.07;1.10;;;21.40;99.90;;;;;;5028429;28;20095;-60
2022/07/03 09:25:08;;;;;;;3.17;0.90;;;21.50;99.90;;;;;;5029848;28;20034;-61
2022/07/03 09:27:35;;;;;;;3.97;0.90;;;21.80;99.90;;;;;;5027975;28;20045;-60
2022/07/03 09:30:04;;;;;;;3.05;1.05;;;21.70;99.90;;;;;;5030108;28;20060;-59
2022/07/03 09:32:44;;;;;;;5.88;1.20;;;21.60;99.90;;;;;;5028129;28;20049;-58
2022/07/03 09:35:24;;;;;;;2.72;0.95;;;21.80;99.90;;;;;;5028773;28;20049;-59
2022/07/03 09:37:51;;;;;;;3.55;0.85;;;21.80;99.90;;;;;;5029501;28;20069;-59
2022/07/03 09:40:18;;;;;;;3.15;0.93;;;22.10;99.90;;;;;;5027194;28;21167;-59
2022/07/03 09:43:07;;;;;;;8.23;1.33;;;22.50;99.90;;;;;;5029030;28;20057;-60
2022/07/03 09:45:55;;;;;;;4.32;1.00;;;22.50;99.90;;;;;;5016006;28;20076;-59
2022/07/03 09:48:21;;;;;;;4.18;1.00;;;22.20;99.90;;;;;;5028416;28;20442;-59
2022/07/03 09:50:47;;;;;;;3.70;1.13;;;22.40;99.90;;;;;;5029611;28;20037;-59
2022/07/03 09:53:13;;;;;;;4.38;1.10;;;22.40;99.90;;;;;;5027802;28;20505;-60
2022/07/03 09:55:38;;;;;;;4.55;1.00;;;22.60;99.90;;;;;;5029476;28;20143;-60
2022/07/03 09:58:04;;;;;;;3.35;0.95;;;22.50;99.90;;;;;;5026814;28;20076;-59
2022/07/03 10:00:33;;;;;;;5.63;1.30;;;22.20;99.90;;;;;;5027729;28;20041;-60
2022/07/03 10:03:05;;;;;;;4.15;1.15;;;21.90;99.90;;;;;;5025793;28;20038;-60
2022/07/03 10:05:41;;;;;;;4.40;1.05;;;22.10;99.90;;;;;;5023323;28;20053;-60
2022/07/03 10:08:19;;;;;;;5.60;1.38;;;21.90;99.90;;;;;;5025409;28;20074;-60
2022/07/03 10:10:46;;;;;;;3.28;0.90;;;21.90;99.90;;;;;;5022765;28;20057;-61
2022/07/03 10:13:13;;;;;;;3.22;1.00;;;22.00;99.90;;;;;;5025761;28;20041;-60
2022/07/03 10:15:40;;;;;;;5.35;1.63;;;21.90;99.90;;;;;;5025010;28;20073;-61
2022/07/03 10:18:09;;;;;;;3.70;1.00;;;22.00;99.90;;;;;;5023314;28;20037;-61
2022/07/03 10:20:48;;;;;;;4.85;1.20;;;22.10;99.90;;;;;;5027698;28;20044;-62
2022/07/03 10:23:21;;;;;;;4.88;0.95;;;21.90;99.90;;;;;;5024129;28;20106;-61
2022/07/03 10:25:48;;;;;;;6.38;1.20;;;21.90;99.90;;;;;;5025027;28;20524;-61
2022/07/03 10:28:16;;;;;;;4.97;1.30;;;22.30;99.90;;;;;;5024847;28;20049;-61
2022/07/03 10:30:46;;;;;;;3.15;0.90;;;22.40;99.90;;;;;;5028770;28;20053;-61
2022/07/03 10:33:12;;;;;;;4.22;1.00;;;22.70;99.90;;;;;;5036243;28;20830;-60
2022/07/03 10:35:43;;;;;;;8.10;1.48;;;22.90;99.90;;;;;;5034399;28;20102;-61
2022/07/03 10:38:16;;;;;;;;;;;22.90;99.90;;;;;;5036686;28;20045;-61
2022/07/03 10:46:36;;;;;;;8.45;1.20;;;22.00;99.90;;;;;;5036282;28;20068;-61
2022/07/03 10:49:07;;;;;;;7.00;1.10;;;22.00;99.90;;;;;;5034084;28;20057;-61
2022/07/03 10:51:45;;;;;;;7.07;1.10;;;22.10;99.90;;;;;;5035808;28;20042;-60
2022/07/03 10:54:17;;;;;;;4.82;0.88;;;22.20;99.90;;;;;;5034592;28;20049;-60
2022/07/03 10:57:06;;;;;;;4.40;1.15;;;22.40;99.90;;;;;;5034510;28;20093;-60
2022/07/03 10:59:35;;;;;;;6.97;1.30;;;22.80;99.90;;;;;;5035987;28;20120;-60
2022/07/03 11:02:33;;;;;;;5.03;1.20;;;23.00;99.90;;;;;;5034007;28;20045;-60
2022/07/03 11:04:59;;;;;;;7.13;1.63;;;22.30;99.90;;;;;;5034832;28;20076;-60
2022/07/03 11:07:33;;;;;;;5.90;1.30;;;22.20;99.90;;;;;;5035136;28;20486;-61
2022/07/03 11:10:13;;;;;;;7.93;1.58;;;22.00;99.90;;;;;;5027792;28;20425;-60
2022/07/03 11:12:58;;;;;;;6.68;1.40;;;21.80;99.90;;;;;;5024617;28;20052;-60
2022/07/03 11:15:37;;;;;;;5.93;1.48;;;21.90;99.90;;;;;;5024001;28;20057;-61
2022/07/03 11:18:08;;;;;;;6.82;1.33;;;21.70;99.90;;;;;;5023862;28;20037;-61
2022/07/03 11:20:43;;;;;;;9.57;1.77;;;21.60;99.90;;;;;;5024179;28;20049;-61
2022/07/03 11:23:27;;;;;;;9.93;2.25;;;21.50;99.90;;;;;;5024480;28;20064;-60
2022/07/03 11:25:55;;;;;;;8.75;2.10;;;21.10;99.90;;;;;;5025918;28;20068;-60
2022/07/03 11:28:33;;;;;;;8.30;1.90;;;20.90;99.90;;;;;;5023935;28;20041;-59
2022/07/03 11:31:07;;;;;;;8.68;1.90;;;21.10;99.90;;;;;;5023086;28;20056;-60
2022/07/03 11:33:42;;;;;;;8.50;2.03;;;21.10;99.90;;;;;;5023910;28;20050;-60
2022/07/03 11:36:30;;;;;;;8.68;2.03;;;21.00;99.90;;;;;;5022089;28;20049;-60
2022/07/03 11:38:59;;;;;;;8.40;1.92;;;21.20;99.90;;;;;;5028805;28;20532;-60
2022/07/03 11:41:26;;;;;;;5.78;1.40;;;21.60;99.90;;;;;;5034073;28;20079;-60
2022/07/03 11:44:01;;;;;;;6.85;1.85;;;21.90;99.90;;;;;;5034547;28;20081;-61
2022/07/03 11:46:29;;;;;;;8.15;1.80;;;22.30;99.90;;;;;;5037059;28;20076;-61
2022/07/03 11:49:10;;;;;;;9.85;1.80;;;22.00;99.90;;;;;;5016823;28;20067;-61
2022/07/03 11:51:38;;;;;;;7.70;1.80;;;21.80;99.90;;;;;;5026302;28;20050;-61
2022/07/03 11:54:04;;;;;;;9.85;2.47;;;21.30;99.90;;;;;;5035947;28;20053;-61
2022/07/03 11:56:31;;;;;;;11.77;2.58;;;21.10;99.90;;;;;;5037304;28;20046;-60
2022/07/03 11:58:59;;;;;;;9.38;2.20;;;21.20;99.90;;;;;;5038284;28;20068;-59
2022/07/03 12:01:27;;;;;;;6.93;1.92;;;21.30;99.90;;;;;;5036119;28;20061;-60
2022/07/03 12:04:12;;;;;;;8.13;2.28;;;21.30;99.90;;;;;;5038490;28;20397;-60
2022/07/03 12:06:49;;;;;;;8.48;1.80;;;21.40;99.90;;;;;;5035282;28;20048;-60
2022/07/03 12:09:19;;;;;;;8.35;1.80;;;21.20;99.90;;;;;;5028375;28;20042;-60
2022/07/03 12:12:06;;;;;;;8.15;2.03;;;21.40;99.90;;;;;;5031584;28;20040;-62
2022/07/03 12:14:43;;;;;;;6.03;1.70;;;21.50;99.90;;;;;;5036006;28;20148;-60
2022/07/03 12:17:12;;;;;;;6.85;1.55;;;21.60;99.90;;;;;;5037803;28;20126;-60
2022/07/03 12:19:43;;;;;;;6.95;1.42;;;21.70;99.90;;;;;;5036661;28;20076;-59
2022/07/03 12:22:09;;;;;;;;;;;22.10;99.90;;;;;;5023258;28;20088;-60
2022/07/03 12:24:35;;;;;;;7.25;1.48;;;22.20;99.90;;;;;;5020282;28;19956;-59
2022/07/03 12:27:03;;;;;;;7.80;1.88;;;22.30;99.90;;;;;;5020366;28;20050;-59
2022/07/03 12:29:30;;;;;;;9.10;1.98;;;22.20;99.90;;;;;;5024769;28;20049;-59
2022/07/03 12:31:56;;;;;;;9.32;1.70;;;21.80;99.90;;;;;;5038198;28;20041;-60
2022/07/03 12:34:21;;;;;;;5.50;1.40;;;21.30;99.90;;;;;;5040131;28;20507;-60
2022/07/03 12:36:58;;;;;;;5.47;1.50;;;21.10;99.90;;;;;;5039671;28;20104;-60
2022/07/03 12:39:43;;;;;;;4.93;1.55;;;21.40;99.90;;;;;;5039105;28;20091;-59
2022/07/03 12:42:20;;;;;;;4.63;1.40;;;21.50;99.90;;;;;;5040740;28;20117;-57
2022/07/03 12:45:16;;;;;;;4.93;1.60;;;21.60;99.90;;;;;;5038938;28;20053;-60
2022/07/03 12:47:42;;;;;;;4.18;1.27;;;21.90;99.90;;;;;;5030192;28;20054;-60
2022/07/03 12:50:08;;;;;;;4.15;1.20;;;21.90;99.90;;;;;;5040304;28;20412;-59
2022/07/03 12:52:50;;;;;;;4.18;1.38;;;22.40;99.90;;;;;;5039046;28;20076;-60
2022/07/03 12:55:27;;;;;;;5.72;1.70;;;21.90;99.90;;;;;;5032501;28;20042;-60
2022/07/03 13:01:02;;;;;;;4.25;1.35;;;22.30;99.90;;;;;;5019388;28;20050;-60
2022/07/03 13:03:35;;;;;;;4.78;1.38;;;22.30;99.90;;;;;;5021471;28;20410;-60
2022/07/03 13:06:00;;;;;;;6.88;1.55;;;22.10;99.90;;;;;;5019239;28;20093;-60
2022/07/03 13:08:26;;;;;;;5.93;1.30;;;22.20;99.90;;;;;;5021135;28;20045;-60
2022/07/03 13:10:59;;;;;;;3.17;1.00;;;21.70;99.90;;;;;;5019395;28;20050;-59
2022/07/03 13:13:26;;;;;;;4.70;1.20;;;21.60;99.90;;;;;;5019828;28;20041;-59